sensor_id;sensor_type;location;lat;lon;timestamp;temperature;humidity
27567;DHT22;15006;48.584;9.186;2023-10-08T00:02:24;10.60;58.10
27567;DHT22;15006;48.584;9.186;2023-10-08T00:04:52;10.70;58.40
27567;DHT22;15006;48.584;9.186;2023-10-08T00:07:21;10.60;58.10
27567;DHT22;15006;48.584;9.186;2023-10-08T00:09:48;10.60;58.40
27567;DHT22;15006;48.584;9.186;2023-10-08T00:12:17;10.60;58.70
27567;DHT22;15006;48.584;9.186;2023-10-08T00:14:43;10.60;58.40
27567;DHT22;15006;48.584;9.186;2023-10-08T00:17:13;10.60;58.40
27567;DHT22;15006;48.584;9.186;2023-10-08T00:19:40;10.60;58.40
27567;DHT22;15006;48.584;9.186;2023-10-08T00:22:09;10.60;58.40
27567;DHT22;15006;48.584;9.186;2023-10-08T00:24:36;10.70;58.30
27567;DHT22;15006;48.584;9.186;2023-10-08T00:27:07;10.70;57.70
27567;DHT22;15006;48.584;9.186;2023-10-08T00:29:34;10.80;57.80
27567;DHT22;15006;48.584;9.186;2023-10-08T00:32:04;10.80;57.90
27567;DHT22;15006;48.584;9.186;2023-10-08T00:34:38;10.80;57.70
27567;DHT22;15006;48.584;9.186;2023-10-08T00:37:09;10.90;57.30
27567;DHT22;15006;48.584;9.186;2023-10-08T00:39:36;10.90;57.20
27567;DHT22;15006;48.584;9.186;2023-10-08T00:42:05;11.00;57.10
27567;DHT22;15006;48.584;9.186;2023-10-08T00:44:34;11.00;56.90
27567;DHT22;15006;48.584;9.186;2023-10-08T00:47:07;11.10;56.90
27567;DHT22;15006;48.584;9.186;2023-10-08T00:49:37;11.10;56.90
27567;DHT22;15006;48.584;9.186;2023-10-08T00:52:09;11.20;56.70
27567;DHT22;15006;48.584;9.186;2023-10-08T00:54:37;11.20;56.50
27567;DHT22;15006;48.584;9.186;2023-10-08T00:57:28;11.20;56.50
27567;DHT22;15006;48.584;9.186;2023-10-08T01:00:03;11.20;56.30
27567;DHT22;15006;48.584;9.186;2023-10-08T01:02:32;11.20;56.50
27567;DHT22;15006;48.584;9.186;2023-10-08T01:05:17;11.20;56.70
27567;DHT22;15006;48.584;9.186;2023-10-08T01:07:52;11.20;56.40
27567;DHT22;15006;48.584;9.186;2023-10-08T01:10:22;11.20;56.40
27567;DHT22;15006;48.584;9.186;2023-10-08T01:12:50;11.10;56.60
27567;DHT22;15006;48.584;9.186;2023-10-08T01:15:46;11.10;56.60
27567;DHT22;15006;48.584;9.186;2023-10-08T01:18:17;11.10;56.50
27567;DHT22;15006;48.584;9.186;2023-10-08T01:20:51;11.00;56.90
27567;DHT22;15006;48.584;9.186;2023-10-08T01:23:19;10.90;56.80
27567;DHT22;15006;48.584;9.186;2023-10-08T01:25:49;10.90;56.90
27567;DHT22;15006;48.584;9.186;2023-10-08T01:28:25;10.90;57.00
27567;DHT22;15006;48.584;9.186;2023-10-08T01:30:56;10.80;56.80
27567;DHT22;15006;48.584;9.186;2023-10-08T01:33:27;10.80;56.80
27567;DHT22;15006;48.584;9.186;2023-10-08T01:35:55;10.80;56.80
27567;DHT22;15006;48.584;9.186;2023-10-08T01:38:29;10.80;56.70
27567;DHT22;15006;48.584;9.186;2023-10-08T01:40:56;10.70;56.50
27567;DHT22;15006;48.584;9.186;2023-10-08T01:43:29;10.70;56.50
27567;DHT22;15006;48.584;9.186;2023-10-08T01:45:56;10.80;57.00
27567;DHT22;15006;48.584;9.186;2023-10-08T01:48:23;10.80;56.70
27567;DHT22;15006;48.584;9.186;2023-10-08T01:51:03;10.80;56.70
27567;DHT22;15006;48.584;9.186;2023-10-08T01:53:38;10.80;56.50
27567;DHT22;15006;48.584;9.186;2023-10-08T01:56:05;10.80;56.50
27567;DHT22;15006;48.584;9.186;2023-10-08T01:58:32;10.80;56.60
27567;DHT22;15006;48.584;9.186;2023-10-08T02:01:02;10.80;56.60
27567;DHT22;15006;48.584;9.186;2023-10-08T02:03:31;10.80;56.60
27567;DHT22;15006;48.584;9.186;2023-10-08T02:05:57;10.80;56.50
27567;DHT22;15006;48.584;9.186;2023-10-08T02:08:25;10.80;56.50
27567;DHT22;15006;48.584;9.186;2023-10-08T02:10:52;10.70;56.50
27567;DHT22;15006;48.584;9.186;2023-10-08T02:13:18;10.70;56.80
27567;DHT22;15006;48.584;9.186;2023-10-08T02:15:50;10.80;57.20
27567;DHT22;15006;48.584;9.186;2023-10-08T02:18:20;10.70;57.40
27567;DHT22;15006;48.584;9.186;2023-10-08T02:20:47;10.60;56.90
27567;DHT22;15006;48.584;9.186;2023-10-08T02:23:14;10.60;56.80
27567;DHT22;15006;48.584;9.186;2023-10-08T02:25:40;10.60;57.30
27567;DHT22;15006;48.584;9.186;2023-10-08T02:28:08;10.60;57.50
27567;DHT22;15006;48.584;9.186;2023-10-08T02:30:42;10.50;57.40
27567;DHT22;15006;48.584;9.186;2023-10-08T02:33:09;10.50;57.00
27567;DHT22;15006;48.584;9.186;2023-10-08T02:35:41;10.40;57.90
27567;DHT22;15006;48.584;9.186;2023-10-08T02:38:14;10.40;58.10
27567;DHT22;15006;48.584;9.186;2023-10-08T02:40:42;10.30;58.20
27567;DHT22;15006;48.584;9.186;2023-10-08T02:43:15;10.30;58.20
27567;DHT22;15006;48.584;9.186;2023-10-08T02:45:42;10.20;58.10
27567;DHT22;15006;48.584;9.186;2023-10-08T02:48:13;10.20;58.50
27567;DHT22;15006;48.584;9.186;2023-10-08T02:50:39;10.10;59.00
27567;DHT22;15006;48.584;9.186;2023-10-08T02:53:06;10.00;59.30
27567;DHT22;15006;48.584;9.186;2023-10-08T02:55:44;10.00;59.40
27567;DHT22;15006;48.584;9.186;2023-10-08T02:58:15;9.90;58.90
27567;DHT22;15006;48.584;9.186;2023-10-08T03:00:46;9.80;59.70
27567;DHT22;15006;48.584;9.186;2023-10-08T03:03:15;9.70;59.90
27567;DHT22;15006;48.584;9.186;2023-10-08T03:05:52;9.70;60.00
27567;DHT22;15006;48.584;9.186;2023-10-08T03:08:22;9.60;61.00
27567;DHT22;15006;48.584;9.186;2023-10-08T03:10:53;9.50;60.30
27567;DHT22;15006;48.584;9.186;2023-10-08T03:13:22;9.40;60.80
27567;DHT22;15006;48.584;9.186;2023-10-08T03:15:49;9.40;60.80
27567;DHT22;15006;48.584;9.186;2023-10-08T03:18:29;9.30;60.80
27567;DHT22;15006;48.584;9.186;2023-10-08T03:21:06;9.30;61.40
27567;DHT22;15006;48.584;9.186;2023-10-08T03:24:08;9.20;62.00
27567;DHT22;15006;48.584;9.186;2023-10-08T03:26:50;9.20;61.90
27567;DHT22;15006;48.584;9.186;2023-10-08T03:29:21;9.10;62.70
27567;DHT22;15006;48.584;9.186;2023-10-08T03:31:56;9.10;62.40
27567;DHT22;15006;48.584;9.186;2023-10-08T03:34:22;9.00;62.40
27567;DHT22;15006;48.584;9.186;2023-10-08T03:36:54;8.90;63.00
27567;DHT22;15006;48.584;9.186;2023-10-08T03:39:31;8.90;63.10
27567;DHT22;15006;48.584;9.186;2023-10-08T03:42:23;8.80;63.30
27567;DHT22;15006;48.584;9.186;2023-10-08T03:44:51;8.80;64.10
27567;DHT22;15006;48.584;9.186;2023-10-08T03:47:23;8.80;63.90
27567;DHT22;15006;48.584;9.186;2023-10-08T03:49:53;8.70;64.40
27567;DHT22;15006;48.584;9.186;2023-10-08T03:52:20;8.60;64.30
27567;DHT22;15006;48.584;9.186;2023-10-08T03:54:50;8.60;64.60
27567;DHT22;15006;48.584;9.186;2023-10-08T03:57:46;8.60;64.80
27567;DHT22;15006;48.584;9.186;2023-10-08T04:00:23;8.60;64.70
27567;DHT22;15006;48.584;9.186;2023-10-08T04:02:58;8.50;64.80
27567;DHT22;15006;48.584;9.186;2023-10-08T04:05:38;8.50;65.00
27567;DHT22;15006;48.584;9.186;2023-10-08T04:08:23;8.50;65.20
27567;DHT22;15006;48.584;9.186;2023-10-08T04:11:09;8.50;65.10
27567;DHT22;15006;48.584;9.186;2023-10-08T04:13:51;8.50;65.20
27567;DHT22;15006;48.584;9.186;2023-10-08T04:16:18;8.50;65.30
27567;DHT22;15006;48.584;9.186;2023-10-08T04:18:47;8.40;65.70
27567;DHT22;15006;48.584;9.186;2023-10-08T04:21:18;8.40;65.70
27567;DHT22;15006;48.584;9.186;2023-10-08T04:23:47;8.40;66.10
27567;DHT22;15006;48.584;9.186;2023-10-08T04:26:18;8.30;66.20
27567;DHT22;15006;48.584;9.186;2023-10-08T04:28:57;8.30;66.40
27567;DHT22;15006;48.584;9.186;2023-10-08T04:31:24;8.30;67.00
27567;DHT22;15006;48.584;9.186;2023-10-08T04:33:55;8.30;66.60
27567;DHT22;15006;48.584;9.186;2023-10-08T04:36:26;8.20;66.60
27567;DHT22;15006;48.584;9.186;2023-10-08T04:38:52;8.30;66.70
27567;DHT22;15006;48.584;9.186;2023-10-08T04:41:21;8.30;66.90
27567;DHT22;15006;48.584;9.186;2023-10-08T04:43:53;8.30;67.00
27567;DHT22;15006;48.584;9.186;2023-10-08T04:46:21;8.30;67.10
27567;DHT22;15006;48.584;9.186;2023-10-08T04:49:16;8.30;67.00
27567;DHT22;15006;48.584;9.186;2023-10-08T04:51:54;8.30;66.90
27567;DHT22;15006;48.584;9.186;2023-10-08T04:54:24;8.30;67.10
27567;DHT22;15006;48.584;9.186;2023-10-08T04:57:01;8.30;66.50
27567;DHT22;15006;48.584;9.186;2023-10-08T04:59:32;8.30;67.40
27567;DHT22;15006;48.584;9.186;2023-10-08T05:02:04;8.20;67.30
27567;DHT22;15006;48.584;9.186;2023-10-08T05:04:50;8.30;67.70
27567;DHT22;15006;48.584;9.186;2023-10-08T05:07:21;8.30;67.60
27567;DHT22;15006;48.584;9.186;2023-10-08T05:10:07;8.20;67.90
27567;DHT22;15006;48.584;9.186;2023-10-08T05:12:57;8.30;67.70
27567;DHT22;15006;48.584;9.186;2023-10-08T05:15:42;8.30;67.90
27567;DHT22;15006;48.584;9.186;2023-10-08T05:18:28;8.40;68.00
27567;DHT22;15006;48.584;9.186;2023-10-08T05:21:15;8.30;68.10
27567;DHT22;15006;48.584;9.186;2023-10-08T05:23:52;8.40;68.00
27567;DHT22;15006;48.584;9.186;2023-10-08T05:26:37;8.40;68.10
27567;DHT22;15006;48.584;9.186;2023-10-08T05:29:09;8.50;68.00
27567;DHT22;15006;48.584;9.186;2023-10-08T05:31:54;8.50;67.60
27567;DHT22;15006;48.584;9.186;2023-10-08T05:34:39;8.50;67.20
27567;DHT22;15006;48.584;9.186;2023-10-08T05:37:17;8.50;67.00
27567;DHT22;15006;48.584;9.186;2023-10-08T05:40:07;8.50;67.40
27567;DHT22;15006;48.584;9.186;2023-10-08T05:42:47;8.50;67.40
27567;DHT22;15006;48.584;9.186;2023-10-08T05:45:16;8.50;67.40
27567;DHT22;15006;48.584;9.186;2023-10-08T05:47:55;8.50;67.70
27567;DHT22;15006;48.584;9.186;2023-10-08T05:50:41;8.50;67.80
27567;DHT22;15006;48.584;9.186;2023-10-08T05:53:39;8.50;68.00
27567;DHT22;15006;48.584;9.186;2023-10-08T05:56:15;8.50;68.30
27567;DHT22;15006;48.584;9.186;2023-10-08T05:59:08;8.50;68.60
27567;DHT22;15006;48.584;9.186;2023-10-08T06:01:44;8.50;68.80
27567;DHT22;15006;48.584;9.186;2023-10-08T06:04:12;8.50;68.90
27567;DHT22;15006;48.584;9.186;2023-10-08T06:07:17;8.50;69.00
27567;DHT22;15006;48.584;9.186;2023-10-08T06:09:59;8.50;69.00
27567;DHT22;15006;48.584;9.186;2023-10-08T06:12:49;8.60;69.50
27567;DHT22;15006;48.584;9.186;2023-10-08T06:15:28;8.60;69.50
27567;DHT22;15006;48.584;9.186;2023-10-08T06:18:24;8.60;70.00
27567;DHT22;15006;48.584;9.186;2023-10-08T06:20:55;8.70;70.70
27567;DHT22;15006;48.584;9.186;2023-10-08T06:23:30;8.80;70.20
27567;DHT22;15006;48.584;9.186;2023-10-08T06:26:01;8.80;69.90
27567;DHT22;15006;48.584;9.186;2023-10-08T06:28:42;8.90;70.20
27567;DHT22;15006;48.584;9.186;2023-10-08T06:31:10;9.00;69.90
27567;DHT22;15006;48.584;9.186;2023-10-08T06:33:39;9.10;69.60
27567;DHT22;15006;48.584;9.186;2023-10-08T06:36:07;9.20;69.20
27567;DHT22;15006;48.584;9.186;2023-10-08T06:38:37;9.30;69.10
27567;DHT22;15006;48.584;9.186;2023-10-08T06:41:06;9.40;69.70
27567;DHT22;15006;48.584;9.186;2023-10-08T06:43:43;9.60;68.80
27567;DHT22;15006;48.584;9.186;2023-10-08T06:46:16;9.70;69.20
27567;DHT22;15006;48.584;9.186;2023-10-08T06:48:47;9.90;68.30
27567;DHT22;15006;48.584;9.186;2023-10-08T06:51:15;10.10;68.20
27567;DHT22;15006;48.584;9.186;2023-10-08T06:53:47;10.30;67.90
27567;DHT22;15006;48.584;9.186;2023-10-08T06:56:15;10.50;67.50
27567;DHT22;15006;48.584;9.186;2023-10-08T06:58:44;10.70;67.30
27567;DHT22;15006;48.584;9.186;2023-10-08T07:01:13;10.90;66.40
27567;DHT22;15006;48.584;9.186;2023-10-08T07:03:50;11.10;65.60
27567;DHT22;15006;48.584;9.186;2023-10-08T07:06:18;11.40;65.30
27567;DHT22;15006;48.584;9.186;2023-10-08T07:09:03;11.60;64.50
27567;DHT22;15006;48.584;9.186;2023-10-08T07:11:39;11.90;63.70
27567;DHT22;15006;48.584;9.186;2023-10-08T07:14:10;12.10;63.20
27567;DHT22;15006;48.584;9.186;2023-10-08T07:16:36;12.40;60.90
27567;DHT22;15006;48.584;9.186;2023-10-08T07:19:03;12.60;61.80
27567;DHT22;15006;48.584;9.186;2023-10-08T07:21:45;12.90;60.90
27567;DHT22;15006;48.584;9.186;2023-10-08T07:24:14;13.10;60.80
27567;DHT22;15006;48.584;9.186;2023-10-08T07:26:48;13.30;59.80
27567;DHT22;15006;48.584;9.186;2023-10-08T07:29:16;13.50;59.80
27567;DHT22;15006;48.584;9.186;2023-10-08T07:31:45;13.60;59.30
27567;DHT22;15006;48.584;9.186;2023-10-08T07:34:16;13.70;59.20
27567;DHT22;15006;48.584;9.186;2023-10-08T07:36:53;13.80;58.90
27567;DHT22;15006;48.584;9.186;2023-10-08T07:39:22;13.90;58.90
27567;DHT22;15006;48.584;9.186;2023-10-08T07:42:01;14.00;59.00
27567;DHT22;15006;48.584;9.186;2023-10-08T07:44:36;14.10;58.40
27567;DHT22;15006;48.584;9.186;2023-10-08T07:47:06;14.20;58.50
27567;DHT22;15006;48.584;9.186;2023-10-08T07:49:38;14.30;58.20
27567;DHT22;15006;48.584;9.186;2023-10-08T07:52:04;14.40;58.10
27567;DHT22;15006;48.584;9.186;2023-10-08T07:54:31;14.50;58.10
27567;DHT22;15006;48.584;9.186;2023-10-08T07:57:01;14.60;58.10
27567;DHT22;15006;48.584;9.186;2023-10-08T07:59:45;14.70;58.50
27567;DHT22;15006;48.584;9.186;2023-10-08T08:02:17;14.80;57.40
27567;DHT22;15006;48.584;9.186;2023-10-08T08:04:49;15.00;57.20
27567;DHT22;15006;48.584;9.186;2023-10-08T08:07:17;15.00;57.00
27567;DHT22;15006;48.584;9.186;2023-10-08T08:09:43;15.10;56.60
27567;DHT22;15006;48.584;9.186;2023-10-08T08:12:39;15.20;56.30
27567;DHT22;15006;48.584;9.186;2023-10-08T08:15:06;15.30;56.00
27567;DHT22;15006;48.584;9.186;2023-10-08T08:17:42;15.40;56.60
27567;DHT22;15006;48.584;9.186;2023-10-08T08:20:08;15.50;56.00
27567;DHT22;15006;48.584;9.186;2023-10-08T08:22:44;15.60;56.60
27567;DHT22;15006;48.584;9.186;2023-10-08T08:25:18;15.70;56.10
27567;DHT22;15006;48.584;9.186;2023-10-08T08:27:59;15.80;56.10
27567;DHT22;15006;48.584;9.186;2023-10-08T08:30:26;15.90;55.60
27567;DHT22;15006;48.584;9.186;2023-10-08T08:32:52;15.90;55.50
27567;DHT22;15006;48.584;9.186;2023-10-08T08:35:19;16.00;55.70
27567;DHT22;15006;48.584;9.186;2023-10-08T08:37:46;16.10;55.20
27567;DHT22;15006;48.584;9.186;2023-10-08T08:40:18;16.10;54.70
27567;DHT22;15006;48.584;9.186;2023-10-08T08:42:47;16.20;55.00
27567;DHT22;15006;48.584;9.186;2023-10-08T08:45:23;16.20;55.20
27567;DHT22;15006;48.584;9.186;2023-10-08T08:47:52;16.30;54.30
27567;DHT22;15006;48.584;9.186;2023-10-08T08:50:19;16.40;54.40
27567;DHT22;15006;48.584;9.186;2023-10-08T08:52:47;16.50;54.40
27567;DHT22;15006;48.584;9.186;2023-10-08T08:55:13;16.50;53.60
27567;DHT22;15006;48.584;9.186;2023-10-08T08:57:43;16.60;53.20
27567;DHT22;15006;48.584;9.186;2023-10-08T09:00:15;16.70;53.50
27567;DHT22;15006;48.584;9.186;2023-10-08T09:02:44;16.80;53.60
27567;DHT22;15006;48.584;9.186;2023-10-08T09:05:14;16.90;52.80
27567;DHT22;15006;48.584;9.186;2023-10-08T09:08:06;17.10;52.80
27567;DHT22;15006;48.584;9.186;2023-10-08T09:10:35;17.20;52.60
27567;DHT22;15006;48.584;9.186;2023-10-08T09:13:22;17.20;52.20
27567;DHT22;15006;48.584;9.186;2023-10-08T09:15:49;17.40;51.80
27567;DHT22;15006;48.584;9.186;2023-10-08T09:18:16;17.50;51.90
27567;DHT22;15006;48.584;9.186;2023-10-08T09:20:42;17.50;52.30
27567;DHT22;15006;48.584;9.186;2023-10-08T09:23:14;17.70;51.90
27567;DHT22;15006;48.584;9.186;2023-10-08T09:25:45;17.70;51.40
27567;DHT22;15006;48.584;9.186;2023-10-08T09:28:17;17.90;51.50
27567;DHT22;15006;48.584;9.186;2023-10-08T09:30:44;18.00;50.40
27567;DHT22;15006;48.584;9.186;2023-10-08T09:33:12;18.00;50.30
27567;DHT22;15006;48.584;9.186;2023-10-08T09:35:39;18.10;51.20
27567;DHT22;15006;48.584;9.186;2023-10-08T09:38:06;18.20;50.10
27567;DHT22;15006;48.584;9.186;2023-10-08T09:40:37;18.30;50.20
27567;DHT22;15006;48.584;9.186;2023-10-08T09:43:04;18.40;50.70
27567;DHT22;15006;48.584;9.186;2023-10-08T09:45:30;18.50;50.10
27567;DHT22;15006;48.584;9.186;2023-10-08T09:47:56;18.70;50.00
27567;DHT22;15006;48.584;9.186;2023-10-08T09:50:30;18.80;49.30
27567;DHT22;15006;48.584;9.186;2023-10-08T09:55:49;19.10;48.40
27567;DHT22;15006;48.584;9.186;2023-10-08T09:58:23;19.40;49.20
27567;DHT22;15006;48.584;9.186;2023-10-08T10:00:52;19.60;48.20
27567;DHT22;15006;48.584;9.186;2023-10-08T10:03:21;19.80;47.60
27567;DHT22;15006;48.584;9.186;2023-10-08T10:05:49;20.10;46.40
27567;DHT22;15006;48.584;9.186;2023-10-08T10:08:25;20.30;46.10
27567;DHT22;15006;48.584;9.186;2023-10-08T10:11:00;20.50;45.70
27567;DHT22;15006;48.584;9.186;2023-10-08T10:13:41;20.60;45.30
27567;DHT22;15006;48.584;9.186;2023-10-08T10:16:16;20.70;44.60
27567;DHT22;15006;48.584;9.186;2023-10-08T10:18:48;20.90;44.20
27567;DHT22;15006;48.584;9.186;2023-10-08T10:23:42;21.00;43.70
27567;DHT22;15006;48.584;9.186;2023-10-08T10:26:41;21.10;44.00
27567;DHT22;15006;48.584;9.186;2023-10-08T10:31:44;21.20;44.50
27567;DHT22;15006;48.584;9.186;2023-10-08T10:34:14;21.30;45.30
27567;DHT22;15006;48.584;9.186;2023-10-08T10:36:44;21.30;44.50
27567;DHT22;15006;48.584;9.186;2023-10-08T10:39:16;21.40;43.50
27567;DHT22;15006;48.584;9.186;2023-10-08T10:41:47;21.50;43.60
27567;DHT22;15006;48.584;9.186;2023-10-08T10:44:17;21.50;43.30
27567;DHT22;15006;48.584;9.186;2023-10-08T10:46:44;21.60;44.00
27567;DHT22;15006;48.584;9.186;2023-10-08T10:49:32;21.70;43.70
27567;DHT22;15006;48.584;9.186;2023-10-08T10:52:02;21.80;43.20
27567;DHT22;15006;48.584;9.186;2023-10-08T10:54:31;22.00;43.20
27567;DHT22;15006;48.584;9.186;2023-10-08T10:57:02;22.10;43.20
27567;DHT22;15006;48.584;9.186;2023-10-08T10:59:32;22.20;43.70
27567;DHT22;15006;48.584;9.186;2023-10-08T11:02:05;22.40;42.80
27567;DHT22;15006;48.584;9.186;2023-10-08T11:04:34;22.60;42.30
27567;DHT22;15006;48.584;9.186;2023-10-08T11:07:21;22.70;42.20
27567;DHT22;15006;48.584;9.186;2023-10-08T11:09:47;22.90;42.30
27567;DHT22;15006;48.584;9.186;2023-10-08T11:12:14;23.10;42.00
27567;DHT22;15006;48.584;9.186;2023-10-08T11:14:48;23.10;40.90
27567;DHT22;15006;48.584;9.186;2023-10-08T11:17:25;23.20;41.30
27567;DHT22;15006;48.584;9.186;2023-10-08T11:19:55;23.30;40.40
27567;DHT22;15006;48.584;9.186;2023-10-08T11:22:21;23.40;40.80
27567;DHT22;15006;48.584;9.186;2023-10-08T11:24:48;23.50;40.30
27567;DHT22;15006;48.584;9.186;2023-10-08T11:27:17;23.50;40.30
27567;DHT22;15006;48.584;9.186;2023-10-08T11:29:55;23.60;39.70
27567;DHT22;15006;48.584;9.186;2023-10-08T11:32:24;23.60;40.50
27567;DHT22;15006;48.584;9.186;2023-10-08T11:34:55;23.60;40.30
27567;DHT22;15006;48.584;9.186;2023-10-08T11:37:45;23.60;40.30
27567;DHT22;15006;48.584;9.186;2023-10-08T11:40:24;23.70;40.60
27567;DHT22;15006;48.584;9.186;2023-10-08T11:43:14;23.60;40.00
27567;DHT22;15006;48.584;9.186;2023-10-08T11:45:43;23.70;40.80
27567;DHT22;15006;48.584;9.186;2023-10-08T11:48:16;23.70;40.60
27567;DHT22;15006;48.584;9.186;2023-10-08T11:50:54;23.70;40.40
27567;DHT22;15006;48.584;9.186;2023-10-08T11:53:23;23.80;41.00
27567;DHT22;15006;48.584;9.186;2023-10-08T11:55:50;23.80;40.60
27567;DHT22;15006;48.584;9.186;2023-10-08T11:58:22;23.80;40.70
27567;DHT22;15006;48.584;9.186;2023-10-08T12:01:01;23.80;40.70
27567;DHT22;15006;48.584;9.186;2023-10-08T12:03:29;23.80;40.80
27567;DHT22;15006;48.584;9.186;2023-10-08T12:05:57;23.80;41.30
27567;DHT22;15006;48.584;9.186;2023-10-08T12:08:27;23.80;40.60
27567;DHT22;15006;48.584;9.186;2023-10-08T12:10:54;23.80;41.00
27567;DHT22;15006;48.584;9.186;2023-10-08T12:13:21;23.80;40.90
27567;DHT22;15006;48.584;9.186;2023-10-08T12:15:56;23.90;40.70
27567;DHT22;15006;48.584;9.186;2023-10-08T12:18:35;23.90;41.00
27567;DHT22;15006;48.584;9.186;2023-10-08T12:21:06;23.90;40.60
27567;DHT22;15006;48.584;9.186;2023-10-08T12:23:37;23.90;41.40
27567;DHT22;15006;48.584;9.186;2023-10-08T12:26:04;23.90;41.50
27567;DHT22;15006;48.584;9.186;2023-10-08T12:28:33;23.90;41.90
27567;DHT22;15006;48.584;9.186;2023-10-08T12:31:00;23.90;41.20
27567;DHT22;15006;48.584;9.186;2023-10-08T12:33:27;24.00;41.20
27567;DHT22;15006;48.584;9.186;2023-10-08T12:35:56;24.10;40.90
27567;DHT22;15006;48.584;9.186;2023-10-08T12:38:24;24.20;41.00
27567;DHT22;15006;48.584;9.186;2023-10-08T12:40:56;24.30;41.10
27567;DHT22;15006;48.584;9.186;2023-10-08T12:43:25;24.40;40.80
27567;DHT22;15006;48.584;9.186;2023-10-08T12:45:54;24.50;40.90
27567;DHT22;15006;48.584;9.186;2023-10-08T12:48:23;24.70;41.20
27567;DHT22;15006;48.584;9.186;2023-10-08T12:50:52;24.90;41.30
27567;DHT22;15006;48.584;9.186;2023-10-08T12:53:26;25.20;41.40
27567;DHT22;15006;48.584;9.186;2023-10-08T12:55:56;25.50;41.00
27567;DHT22;15006;48.584;9.186;2023-10-08T12:58:24;25.90;39.60
27567;DHT22;15006;48.584;9.186;2023-10-08T13:00:52;26.20;40.00
27567;DHT22;15006;48.584;9.186;2023-10-08T13:03:24;26.50;39.50
27567;DHT22;15006;48.584;9.186;2023-10-08T13:05:54;26.80;39.70
27567;DHT22;15006;48.584;9.186;2023-10-08T13:08:20;27.20;38.90
27567;DHT22;15006;48.584;9.186;2023-10-08T13:10:47;27.70;38.90
27567;DHT22;15006;48.584;9.186;2023-10-08T13:13:13;28.30;38.60
27567;DHT22;15006;48.584;9.186;2023-10-08T13:15:40;28.90;37.20
27567;DHT22;15006;48.584;9.186;2023-10-08T13:18:08;29.60;36.40
27567;DHT22;15006;48.584;9.186;2023-10-08T13:20:34;30.20;34.90
27567;DHT22;15006;48.584;9.186;2023-10-08T13:23:00;30.60;34.20
27567;DHT22;15006;48.584;9.186;2023-10-08T13:25:28;31.10;33.80
27567;DHT22;15006;48.584;9.186;2023-10-08T13:27:59;31.60;33.70
27567;DHT22;15006;48.584;9.186;2023-10-08T13:30:28;32.10;32.70
27567;DHT22;15006;48.584;9.186;2023-10-08T13:32:54;32.50;31.60
27567;DHT22;15006;48.584;9.186;2023-10-08T13:35:20;33.00;31.50
27567;DHT22;15006;48.584;9.186;2023-10-08T13:37:46;33.40;31.10
27567;DHT22;15006;48.584;9.186;2023-10-08T13:40:15;33.80;30.10
27567;DHT22;15006;48.584;9.186;2023-10-08T13:42:42;34.10;29.70
27567;DHT22;15006;48.584;9.186;2023-10-08T13:45:09;34.50;28.50
27567;DHT22;15006;48.584;9.186;2023-10-08T13:47:35;34.70;28.50
27567;DHT22;15006;48.584;9.186;2023-10-08T13:50:06;34.80;28.30
27567;DHT22;15006;48.584;9.186;2023-10-08T13:52:36;35.00;28.40
27567;DHT22;15006;48.584;9.186;2023-10-08T13:55:11;35.20;27.60
27567;DHT22;15006;48.584;9.186;2023-10-08T13:57:52;35.30;26.90
27567;DHT22;15006;48.584;9.186;2023-10-08T14:00:20;35.40;27.10
27567;DHT22;15006;48.584;9.186;2023-10-08T14:03:03;35.60;27.30
27567;DHT22;15006;48.584;9.186;2023-10-08T14:05:34;35.70;26.60
27567;DHT22;15006;48.584;9.186;2023-10-08T14:08:01;35.80;26.50
27567;DHT22;15006;48.584;9.186;2023-10-08T14:10:30;35.90;25.60
27567;DHT22;15006;48.584;9.186;2023-10-08T14:12:57;35.90;25.60
27567;DHT22;15006;48.584;9.186;2023-10-08T14:15:27;35.90;25.50
27567;DHT22;15006;48.584;9.186;2023-10-08T14:17:58;35.90;25.40
27567;DHT22;15006;48.584;9.186;2023-10-08T14:20:31;35.90;25.30
27567;DHT22;15006;48.584;9.186;2023-10-08T14:22:57;35.80;24.70
27567;DHT22;15006;48.584;9.186;2023-10-08T14:25:28;35.60;24.90
27567;DHT22;15006;48.584;9.186;2023-10-08T14:28:01;35.20;24.70
27567;DHT22;15006;48.584;9.186;2023-10-08T14:30:33;34.70;24.40
27567;DHT22;15006;48.584;9.186;2023-10-08T14:33:07;34.10;25.00
27567;DHT22;15006;48.584;9.186;2023-10-08T14:35:35;33.60;25.50
27567;DHT22;15006;48.584;9.186;2023-10-08T14:38:19;33.10;25.70
27567;DHT22;15006;48.584;9.186;2023-10-08T14:41:04;32.60;25.80
27567;DHT22;15006;48.584;9.186;2023-10-08T14:43:49;32.30;26.60
27567;DHT22;15006;48.584;9.186;2023-10-08T14:46:15;32.10;27.00
27567;DHT22;15006;48.584;9.186;2023-10-08T14:48:44;32.00;27.20
27567;DHT22;15006;48.584;9.186;2023-10-08T14:51:12;31.90;26.90
27567;DHT22;15006;48.584;9.186;2023-10-08T14:53:45;31.90;27.30
27567;DHT22;15006;48.584;9.186;2023-10-08T14:56:11;31.90;27.50
27567;DHT22;15006;48.584;9.186;2023-10-08T14:58:38;31.80;26.60
27567;DHT22;15006;48.584;9.186;2023-10-08T15:01:06;31.70;26.50
27567;DHT22;15006;48.584;9.186;2023-10-08T15:03:34;31.50;26.50
27567;DHT22;15006;48.584;9.186;2023-10-08T15:06:05;31.30;27.10
27567;DHT22;15006;48.584;9.186;2023-10-08T15:08:33;31.00;27.20
27567;DHT22;15006;48.584;9.186;2023-10-08T15:11:00;30.80;27.00
27567;DHT22;15006;48.584;9.186;2023-10-08T15:13:29;30.60;27.30
27567;DHT22;15006;48.584;9.186;2023-10-08T15:15:57;30.30;27.70
27567;DHT22;15006;48.584;9.186;2023-10-08T15:18:25;29.90;28.00
27567;DHT22;15006;48.584;9.186;2023-10-08T15:21:00;29.60;28.40
27567;DHT22;15006;48.584;9.186;2023-10-08T15:23:30;29.30;28.80
27567;DHT22;15006;48.584;9.186;2023-10-08T15:25:59;29.10;29.20
27567;DHT22;15006;48.584;9.186;2023-10-08T15:28:25;28.90;29.50
27567;DHT22;15006;48.584;9.186;2023-10-08T15:30:52;28.70;29.60
27567;DHT22;15006;48.584;9.186;2023-10-08T15:33:18;28.60;29.70
27567;DHT22;15006;48.584;9.186;2023-10-08T15:35:44;28.30;29.90
27567;DHT22;15006;48.584;9.186;2023-10-08T15:38:10;28.10;29.80
27567;DHT22;15006;48.584;9.186;2023-10-08T15:40:38;27.90;29.80
27567;DHT22;15006;48.584;9.186;2023-10-08T15:43:04;27.70;30.00
27567;DHT22;15006;48.584;9.186;2023-10-08T15:45:30;27.40;30.00
27567;DHT22;15006;48.584;9.186;2023-10-08T15:47:57;27.20;30.10
27567;DHT22;15006;48.584;9.186;2023-10-08T15:50:23;26.90;30.70
27567;DHT22;15006;48.584;9.186;2023-10-08T15:52:53;26.60;31.30
27567;DHT22;15006;48.584;9.186;2023-10-08T15:55:20;26.30;31.90
27567;DHT22;15006;48.584;9.186;2023-10-08T15:57:47;26.00;32.90
27567;DHT22;15006;48.584;9.186;2023-10-08T16:02:39;25.50;34.40
27567;DHT22;15006;48.584;9.186;2023-10-08T16:05:05;25.30;34.30
27567;DHT22;15006;48.584;9.186;2023-10-08T16:07:33;25.10;35.40
27567;DHT22;15006;48.584;9.186;2023-10-08T16:09:59;24.90;35.80
27567;DHT22;15006;48.584;9.186;2023-10-08T16:12:25;24.70;36.10
27567;DHT22;15006;48.584;9.186;2023-10-08T16:14:51;24.50;36.20
27567;DHT22;15006;48.584;9.186;2023-10-08T16:17:18;24.30;36.60